Shin Puropan Maru — JG5508 — position and weather

sailwx.info

Track history (hours):
 
Tides and Currents Weather Stations Pressure Air Temp Water Temp Dewpoint Dewpoint Depression Visibility Wind Speed Wind Dir Waves Ship Positions

Shin Puropan Maru

Last reported at 2017-Jan-18 23:10 UTC. Time now 2017-Jan-19 00:19 UTC.
Position N 34°34' E 135°26'.

Length 66 m; draft 4.6 m.

Type: Ship (hazmat cat A). MMSI: 431100348.

Date/timePositionNaut miles runAvg speedWind from/ knotsBaromVisibWave heightAir tempDewpointWater temp
2017-Jan-18 23:10N 34°34' E 135°26'4 6.2
2017-Jan-18 22:33N 34°36' E 135°21'1111.1
2017-Jan-18 21:33N 34°28' E 135°12'1110.9
2017-Jan-18 20:30N 34°20' E 135°02'9 9.7
2017-Jan-18 19:33N 34°11' E 135°00'15 0.4
2017-Jan-17 03:33N 34°26' E 135°06'1211.9
2017-Jan-17 02:32N 34°33' E 135°18'6 1.6
2017-Jan-16 22:33N 34°34' E 135°26'2 0.7
2017-Jan-16 19:22N 34°35' E 135°23'0 0.0
2017-Jan-16 18:28N 34°35' E 135°23'0 0.0
2017-Jan-16 17:28N 34°35' E 135°23'0 0.0
2017-Jan-16 16:22N 34°35' E 135°23'0 0.0
2017-Jan-16 15:16N 34°35' E 135°23'0 0.0
2017-Jan-16 12:28N 34°35' E 135°23'0 0.0
2017-Jan-16 09:11N 34°35' E 135°23'5 8.3
2017-Jan-16 08:33N 34°32' E 135°18'1211.6
2017-Jan-16 07:31N 34°24' E 135°07'11 9.6
2017-Jan-16 06:21N 34°14' E 134°60'911.3
2017-Jan-16 05:32N 34°05' E 135°01'243 8.7
2017-Jan-15 01:31N 35°11' E 139°45'1111.7
2017-Jan-15 00:33N 35°22' E 139°42'1212.1
2017-Jan-14 23:33N 35°31' E 139°52'5 4.6
2017-Jan-14 22:31N 35°36' E 139°54'0 0.0
2017-Jan-14 21:25N 35°36' E 139°54'0 0.0
2017-Jan-14 20:31N 35°36' E 139°54'0 0.0
2017-Jan-14 19:31N 35°36' E 139°54'0 0.0
2017-Jan-14 18:31N 35°36' E 139°54'0 0.0
2017-Jan-14 17:28N 35°36' E 139°54'0 0.0
2017-Jan-14 15:13N 35°36' E 139°53'0 0.0
2017-Jan-14 14:31N 35°36' E 139°53'0 0.0
2017-Jan-14 13:31N 35°36' E 139°53'0 0.0
2017-Jan-14 12:31N 35°36' E 139°53'0 0.0
2017-Jan-14 11:31N 35°36' E 139°53'0 0.0
2017-Jan-14 10:31N 35°36' E 139°53'0 0.0
2017-Jan-14 09:31N 35°36' E 139°53'0 0.0
2017-Jan-14 08:32N 35°36' E 139°54'8 8.6
2017-Jan-14 07:33N 35°33' E 140°03'2 0.4
2017-Jan-14 03:33N 35°33' E 140°05'9 2.2
2017-Jan-13 23:27N 35°36' E 139°54'0 0.0
2017-Jan-13 22:30N 35°36' E 139°54'0 0.0
2017-Jan-13 21:33N 35°36' E 139°54'0 0.0
2017-Jan-13 20:33N 35°36' E 139°54'0 0.0
2017-Jan-13 19:33N 35°36' E 139°54'0 0.0
2017-Jan-13 18:33N 35°36' E 139°54'0 0.0
2017-Jan-13 17:27N 35°36' E 139°54'0 0.0
2017-Jan-13 16:33N 35°36' E 139°54'0 0.1
2017-Jan-13 15:33N 35°36' E 139°54'0 0.0
2017-Jan-13 14:33N 35°36' E 139°54'0 0.0
2017-Jan-13 12:27N 35°36' E 139°54'0 0.0
2017-Jan-13 11:30N 35°36' E 139°54'0 0.1
2017-Jan-13 10:33N 35°36' E 139°54'3 3.0
2017-Jan-13 09:33N 35°33' E 139°53'1212.0
2017-Jan-13 08:34N 35°23' E 139°46'1211.5
2017-Jan-13 07:33N 35°11' E 139°46'24510.9
2017-Jan-12 09:04N 34°02' E 135°01'612.8
2017-Jan-12 08:33N 34°08' E 135°00'2311.5
2017-Jan-12 06:33N 34°29' E 135°11'1010.2
2017-Jan-12 05:33N 34°38' E 135°18'2 2.0
2017-Jan-12 04:33N 34°39' E 135°20'6 6.4
2017-Jan-12 03:34N 34°35' E 135°26'1 0.2
2017-Jan-12 00:22N 34°34' E 135°26'4 4.8
2017-Jan-11 23:33N 34°36' E 135°21'1212.0
2017-Jan-11 22:33N 34°28' E 135°11'1412.5
2017-Jan-11 21:28N 34°18' E 135°00'1112.3
2017-Jan-11 20:33N 34°07' E 135°01'  
2017-Jan-09 06:08N 34°03' E 135°01'812.4
2017-Jan-09 05:28N 34°11' E 134°59'1611.3
2017-Jan-09 04:05N 34°26' E 135°07'612.1
2017-Jan-09 03:33N 34°29' E 135°13'1110.8
2017-Jan-09 02:33N 34°36' E 135°23'3 1.0
2017-Jan-08 23:29N 34°34' E 135°26'  
Track history (hours):
 
Tides and Currents Weather Stations Pressure Air Temp Water Temp Dewpoint Dewpoint Depression Visibility Wind Speed Wind Dir Waves Ship Positions

Shin Puropan Maru

Last reported at 2017-Jan-18 23:10 UTC. Time now 2017-Jan-19 00:19 UTC.
Position N 34°34' E 135°26'.

Length 66 m; draft 4.6 m.

Type: Ship (hazmat cat A). MMSI: 431100348.

Date/timePositionNaut miles runAvg speedWind from/ knotsBaromVisibWave heightAir tempDewpointWater temp
2017-Jan-18 23:10N 34°34' E 135°26'4 6.2
2017-Jan-18 22:33N 34°36' E 135°21'1111.1
2017-Jan-18 21:33N 34°28' E 135°12'1110.9
2017-Jan-18 20:30N 34°20' E 135°02'9 9.7
2017-Jan-18 19:33N 34°11' E 135°00'15 0.4
2017-Jan-17 03:33N 34°26' E 135°06'1211.9
2017-Jan-17 02:32N 34°33' E 135°18'6 1.6
2017-Jan-16 22:33N 34°34' E 135°26'2 0.7
2017-Jan-16 19:22N 34°35' E 135°23'0 0.0
2017-Jan-16 18:28N 34°35' E 135°23'0 0.0
2017-Jan-16 17:28N 34°35' E 135°23'0 0.0
2017-Jan-16 16:22N 34°35' E 135°23'0 0.0
2017-Jan-16 15:16N 34°35' E 135°23'0 0.0
2017-Jan-16 12:28N 34°35' E 135°23'0 0.0
2017-Jan-16 09:11N 34°35' E 135°23'5 8.3
2017-Jan-16 08:33N 34°32' E 135°18'1211.6
2017-Jan-16 07:31N 34°24' E 135°07'11 9.6
2017-Jan-16 06:21N 34°14' E 134°60'911.3
2017-Jan-16 05:32N 34°05' E 135°01'243 8.7
2017-Jan-15 01:31N 35°11' E 139°45'1111.7
2017-Jan-15 00:33N 35°22' E 139°42'1212.1
2017-Jan-14 23:33N 35°31' E 139°52'5 4.6
2017-Jan-14 22:31N 35°36' E 139°54'0 0.0
2017-Jan-14 21:25N 35°36' E 139°54'0 0.0
2017-Jan-14 20:31N 35°36' E 139°54'0 0.0
2017-Jan-14 19:31N 35°36' E 139°54'0 0.0
2017-Jan-14 18:31N 35°36' E 139°54'0 0.0
2017-Jan-14 17:28N 35°36' E 139°54'0 0.0
2017-Jan-14 15:13N 35°36' E 139°53'0 0.0
2017-Jan-14 14:31N 35°36' E 139°53'0 0.0
2017-Jan-14 13:31N 35°36' E 139°53'0 0.0
2017-Jan-14 12:31N 35°36' E 139°53'0 0.0
2017-Jan-14 11:31N 35°36' E 139°53'0 0.0
2017-Jan-14 10:31N 35°36' E 139°53'0 0.0
2017-Jan-14 09:31N 35°36' E 139°53'0 0.0
2017-Jan-14 08:32N 35°36' E 139°54'8 8.6
2017-Jan-14 07:33N 35°33' E 140°03'2 0.4
2017-Jan-14 03:33N 35°33' E 140°05'9 2.2
2017-Jan-13 23:27N 35°36' E 139°54'0 0.0
2017-Jan-13 22:30N 35°36' E 139°54'0 0.0
2017-Jan-13 21:33N 35°36' E 139°54'0 0.0
2017-Jan-13 20:33N 35°36' E 139°54'0 0.0
2017-Jan-13 19:33N 35°36' E 139°54'0 0.0
2017-Jan-13 18:33N 35°36' E 139°54'0 0.0
2017-Jan-13 17:27N 35°36' E 139°54'0 0.0
2017-Jan-13 16:33N 35°36' E 139°54'0 0.1
2017-Jan-13 15:33N 35°36' E 139°54'0 0.0
2017-Jan-13 14:33N 35°36' E 139°54'0 0.0
2017-Jan-13 12:27N 35°36' E 139°54'0 0.0
2017-Jan-13 11:30N 35°36' E 139°54'0 0.1
2017-Jan-13 10:33N 35°36' E 139°54'3 3.0
2017-Jan-13 09:33N 35°33' E 139°53'1212.0
2017-Jan-13 08:34N 35°23' E 139°46'1211.5
2017-Jan-13 07:33N 35°11' E 139°46'24510.9
2017-Jan-12 09:04N 34°02' E 135°01'612.8
2017-Jan-12 08:33N 34°08' E 135°00'2311.5
2017-Jan-12 06:33N 34°29' E 135°11'1010.2
2017-Jan-12 05:33N 34°38' E 135°18'2 2.0
2017-Jan-12 04:33N 34°39' E 135°20'6 6.4
2017-Jan-12 03:34N 34°35' E 135°26'1 0.2
2017-Jan-12 00:22N 34°34' E 135°26'4 4.8
2017-Jan-11 23:33N 34°36' E 135°21'1212.0
2017-Jan-11 22:33N 34°28' E 135°11'1412.5
2017-Jan-11 21:28N 34°18' E 135°00'1112.3
2017-Jan-11 20:33N 34°07' E 135°01'  
2017-Jan-09 06:08N 34°03' E 135°01'812.4
2017-Jan-09 05:28N 34°11' E 134°59'1611.3
2017-Jan-09 04:05N 34°26' E 135°07'612.1
2017-Jan-09 03:33N 34°29' E 135°13'1110.8
2017-Jan-09 02:33N 34°36' E 135°23'3 1.0
2017-Jan-08 23:29N 34°34' E 135°26'  

Dump ship's entire track history